sensor_id;sensor_type;location;lat;lon;timestamp;P1;durP1;ratioP1;P2;durP2;ratioP2
64633;SDS011;51043;52.406;9.690;2023-09-08T00:00:27;8.50;;;5.28;;
64633;SDS011;51043;52.406;9.690;2023-09-08T00:02:55;10.13;;;5.38;;
64633;SDS011;51043;52.406;9.690;2023-09-08T00:05:27;8.32;;;5.07;;
64633;SDS011;51043;52.406;9.690;2023-09-08T00:07:55;6.93;;;5.13;;
64633;SDS011;51043;52.406;9.690;2023-09-08T00:10:24;13.85;;;5.18;;
64633;SDS011;51043;52.406;9.690;2023-09-08T00:12:53;7.45;;;4.80;;
64633;SDS011;51043;52.406;9.690;2023-09-08T00:15:22;11.82;;;5.47;;
64633;SDS011;51043;52.406;9.690;2023-09-08T00:17:50;16.08;;;5.50;;
64633;SDS011;51043;52.406;9.690;2023-09-08T00:20:18;7.65;;;5.00;;
64633;SDS011;51043;52.406;9.690;2023-09-08T00:22:46;7.93;;;5.32;;
64633;SDS011;51043;52.406;9.690;2023-09-08T00:25:14;10.55;;;5.65;;
64633;SDS011;51043;52.406;9.690;2023-09-08T00:27:42;8.30;;;5.10;;
64633;SDS011;51043;52.406;9.690;2023-09-08T00:30:13;10.20;;;5.20;;
64633;SDS011;51043;52.406;9.690;2023-09-08T00:32:42;13.10;;;5.40;;
64633;SDS011;51043;52.406;9.690;2023-09-08T00:35:13;9.00;;;5.38;;
64633;SDS011;51043;52.406;9.690;2023-09-08T00:37:41;12.38;;;5.28;;
64633;SDS011;51043;52.406;9.690;2023-09-08T00:40:11;8.35;;;5.10;;
64633;SDS011;51043;52.406;9.690;2023-09-08T00:42:40;5.93;;;4.68;;
64633;SDS011;51043;52.406;9.690;2023-09-08T00:45:08;10.43;;;5.05;;
64633;SDS011;51043;52.406;9.690;2023-09-08T00:47:38;6.32;;;5.18;;
64633;SDS011;51043;52.406;9.690;2023-09-08T00:50:06;9.77;;;4.80;;
64633;SDS011;51043;52.406;9.690;2023-09-08T00:52:36;7.20;;;5.13;;
64633;SDS011;51043;52.406;9.690;2023-09-08T00:55:05;7.95;;;5.13;;
64633;SDS011;51043;52.406;9.690;2023-09-08T00:57:33;9.55;;;4.93;;
64633;SDS011;51043;52.406;9.690;2023-09-08T01:00:02;9.50;;;5.13;;
64633;SDS011;51043;52.406;9.690;2023-09-08T01:02:32;7.03;;;5.18;;
64633;SDS011;51043;52.406;9.690;2023-09-08T01:05:01;7.50;;;4.63;;
64633;SDS011;51043;52.406;9.690;2023-09-08T01:07:29;8.27;;;4.88;;
64633;SDS011;51043;52.406;9.690;2023-09-08T01:09:59;9.70;;;5.03;;
64633;SDS011;51043;52.406;9.690;2023-09-08T01:12:30;9.35;;;5.18;;
64633;SDS011;51043;52.406;9.690;2023-09-08T01:14:59;9.15;;;4.82;;
64633;SDS011;51043;52.406;9.690;2023-09-08T01:17:27;8.15;;;4.55;;
64633;SDS011;51043;52.406;9.690;2023-09-08T01:19:58;9.30;;;5.13;;
64633;SDS011;51043;52.406;9.690;2023-09-08T01:25:40;8.45;;;4.90;;
64633;SDS011;51043;52.406;9.690;2023-09-08T01:28:16;12.25;;;5.10;;
64633;SDS011;51043;52.406;9.690;2023-09-08T01:30:45;7.40;;;5.20;;
64633;SDS011;51043;52.406;9.690;2023-09-08T01:33:15;7.13;;;5.20;;
64633;SDS011;51043;52.406;9.690;2023-09-08T01:35:44;9.35;;;5.53;;
64633;SDS011;51043;52.406;9.690;2023-09-08T01:38:13;8.45;;;5.28;;
64633;SDS011;51043;52.406;9.690;2023-09-08T01:40:42;9.50;;;4.82;;
64633;SDS011;51043;52.406;9.690;2023-09-08T01:43:10;13.68;;;5.15;;
64633;SDS011;51043;52.406;9.690;2023-09-08T01:45:38;10.25;;;5.10;;
64633;SDS011;51043;52.406;9.690;2023-09-08T01:48:06;6.57;;;5.43;;
64633;SDS011;51043;52.406;9.690;2023-09-08T01:50:34;7.15;;;5.10;;
64633;SDS011;51043;52.406;9.690;2023-09-08T01:53:03;6.88;;;4.85;;
64633;SDS011;51043;52.406;9.690;2023-09-08T01:55:31;8.43;;;5.05;;
64633;SDS011;51043;52.406;9.690;2023-09-08T01:58:00;12.80;;;5.22;;
64633;SDS011;51043;52.406;9.690;2023-09-08T02:00:29;6.93;;;5.35;;
64633;SDS011;51043;52.406;9.690;2023-09-08T02:02:57;8.13;;;4.95;;
64633;SDS011;51043;52.406;9.690;2023-09-08T02:05:27;8.63;;;5.15;;
64633;SDS011;51043;52.406;9.690;2023-09-08T02:07:55;8.25;;;5.57;;
64633;SDS011;51043;52.406;9.690;2023-09-08T02:10:24;8.90;;;5.28;;
64633;SDS011;51043;52.406;9.690;2023-09-08T02:12:52;7.40;;;5.40;;
64633;SDS011;51043;52.406;9.690;2023-09-08T02:15:22;10.38;;;4.88;;
64633;SDS011;51043;52.406;9.690;2023-09-08T02:17:52;13.65;;;5.50;;
64633;SDS011;51043;52.406;9.690;2023-09-08T02:20:20;7.20;;;5.78;;
64633;SDS011;51043;52.406;9.690;2023-09-08T02:22:49;7.95;;;5.88;;
64633;SDS011;51043;52.406;9.690;2023-09-08T02:25:20;9.52;;;5.40;;
64633;SDS011;51043;52.406;9.690;2023-09-08T02:27:50;11.57;;;5.70;;
64633;SDS011;51043;52.406;9.690;2023-09-08T02:30:20;9.73;;;5.80;;
64633;SDS011;51043;52.406;9.690;2023-09-08T02:32:50;8.43;;;6.47;;
64633;SDS011;51043;52.406;9.690;2023-09-08T02:35:18;10.05;;;6.22;;
64633;SDS011;51043;52.406;9.690;2023-09-08T02:37:47;12.35;;;5.93;;
64633;SDS011;51043;52.406;9.690;2023-09-08T02:40:17;12.27;;;5.97;;
64633;SDS011;51043;52.406;9.690;2023-09-08T02:42:45;10.68;;;5.70;;
64633;SDS011;51043;52.406;9.690;2023-09-08T02:45:14;11.27;;;5.53;;
64633;SDS011;51043;52.406;9.690;2023-09-08T02:47:42;8.85;;;6.15;;
64633;SDS011;51043;52.406;9.690;2023-09-08T02:50:12;13.43;;;6.25;;
64633;SDS011;51043;52.406;9.690;2023-09-08T02:52:40;11.18;;;6.00;;
64633;SDS011;51043;52.406;9.690;2023-09-08T02:55:09;9.75;;;6.43;;
64633;SDS011;51043;52.406;9.690;2023-09-08T02:57:38;8.30;;;6.22;;
64633;SDS011;51043;52.406;9.690;2023-09-08T03:00:08;12.98;;;6.03;;
64633;SDS011;51043;52.406;9.690;2023-09-08T03:02:36;14.75;;;6.82;;
64633;SDS011;51043;52.406;9.690;2023-09-08T03:05:05;15.82;;;6.35;;
64633;SDS011;51043;52.406;9.690;2023-09-08T03:07:36;11.23;;;6.78;;
64633;SDS011;51043;52.406;9.690;2023-09-08T03:10:05;11.48;;;6.18;;
64633;SDS011;51043;52.406;9.690;2023-09-08T03:12:35;10.18;;;6.65;;
64633;SDS011;51043;52.406;9.690;2023-09-08T03:15:04;10.18;;;6.70;;
64633;SDS011;51043;52.406;9.690;2023-09-08T03:17:33;11.07;;;6.75;;
64633;SDS011;51043;52.406;9.690;2023-09-08T03:20:02;10.70;;;6.50;;
64633;SDS011;51043;52.406;9.690;2023-09-08T03:22:33;11.70;;;6.82;;
64633;SDS011;51043;52.406;9.690;2023-09-08T03:25:03;14.70;;;7.15;;
64633;SDS011;51043;52.406;9.690;2023-09-08T03:27:32;12.40;;;7.25;;
64633;SDS011;51043;52.406;9.690;2023-09-08T03:30:00;13.15;;;7.40;;
64633;SDS011;51043;52.406;9.690;2023-09-08T03:32:29;17.35;;;7.50;;
64633;SDS011;51043;52.406;9.690;2023-09-08T03:34:57;15.77;;;7.55;;
64633;SDS011;51043;52.406;9.690;2023-09-08T03:37:27;11.63;;;7.30;;
64633;SDS011;51043;52.406;9.690;2023-09-08T03:39:55;11.90;;;7.93;;
64633;SDS011;51043;52.406;9.690;2023-09-08T03:42:25;10.52;;;7.95;;
64633;SDS011;51043;52.406;9.690;2023-09-08T03:44:53;11.82;;;7.97;;
64633;SDS011;51043;52.406;9.690;2023-09-08T03:47:23;15.15;;;7.72;;
64633;SDS011;51043;52.406;9.690;2023-09-08T03:49:55;10.48;;;8.00;;
64633;SDS011;51043;52.406;9.690;2023-09-08T03:52:23;10.10;;;7.80;;
64633;SDS011;51043;52.406;9.690;2023-09-08T03:54:52;14.70;;;8.30;;
64633;SDS011;51043;52.406;9.690;2023-09-08T03:57:20;16.63;;;8.00;;
64633;SDS011;51043;52.406;9.690;2023-09-08T03:59:50;9.60;;;7.63;;
64633;SDS011;51043;52.406;9.690;2023-09-08T04:02:18;16.20;;;8.05;;
64633;SDS011;51043;52.406;9.690;2023-09-08T04:04:46;12.43;;;7.68;;
64633;SDS011;51043;52.406;9.690;2023-09-08T04:07:15;12.00;;;7.68;;
64633;SDS011;51043;52.406;9.690;2023-09-08T04:09:43;17.33;;;7.72;;
64633;SDS011;51043;52.406;9.690;2023-09-08T04:12:11;13.57;;;7.87;;
64633;SDS011;51043;52.406;9.690;2023-09-08T04:14:40;12.77;;;8.07;;
64633;SDS011;51043;52.406;9.690;2023-09-08T04:17:10;11.80;;;8.00;;
64633;SDS011;51043;52.406;9.690;2023-09-08T04:19:39;14.68;;;8.07;;
64633;SDS011;51043;52.406;9.690;2023-09-08T04:22:07;20.17;;;8.15;;
64633;SDS011;51043;52.406;9.690;2023-09-08T04:24:36;13.30;;;7.80;;
64633;SDS011;51043;52.406;9.690;2023-09-08T04:27:06;16.83;;;7.60;;
64633;SDS011;51043;52.406;9.690;2023-09-08T04:29:35;15.32;;;7.95;;
64633;SDS011;51043;52.406;9.690;2023-09-08T04:32:03;12.88;;;8.02;;
64633;SDS011;51043;52.406;9.690;2023-09-08T04:34:37;13.68;;;7.45;;
64633;SDS011;51043;52.406;9.690;2023-09-08T04:37:07;17.58;;;8.60;;
64633;SDS011;51043;52.406;9.690;2023-09-08T04:39:35;16.17;;;7.32;;
64633;SDS011;51043;52.406;9.690;2023-09-08T04:42:04;12.43;;;7.90;;
64633;SDS011;51043;52.406;9.690;2023-09-08T04:44:33;11.82;;;7.53;;
64633;SDS011;51043;52.406;9.690;2023-09-08T04:47:01;12.13;;;7.83;;
64633;SDS011;51043;52.406;9.690;2023-09-08T04:49:30;14.27;;;7.40;;
64633;SDS011;51043;52.406;9.690;2023-09-08T04:52:00;11.85;;;7.10;;
64633;SDS011;51043;52.406;9.690;2023-09-08T04:54:29;12.15;;;7.53;;
64633;SDS011;51043;52.406;9.690;2023-09-08T04:56:58;10.82;;;7.43;;
64633;SDS011;51043;52.406;9.690;2023-09-08T04:59:33;12.93;;;7.38;;
64633;SDS011;51043;52.406;9.690;2023-09-08T05:02:03;13.50;;;8.10;;
64633;SDS011;51043;52.406;9.690;2023-09-08T05:04:32;12.88;;;8.52;;
64633;SDS011;51043;52.406;9.690;2023-09-08T05:07:02;11.82;;;7.80;;
64633;SDS011;51043;52.406;9.690;2023-09-08T05:09:31;13.97;;;8.10;;
64633;SDS011;51043;52.406;9.690;2023-09-08T05:12:00;12.18;;;8.23;;
64633;SDS011;51043;52.406;9.690;2023-09-08T05:14:29;17.63;;;8.80;;
64633;SDS011;51043;52.406;9.690;2023-09-08T05:16:57;14.02;;;7.72;;
64633;SDS011;51043;52.406;9.690;2023-09-08T05:19:28;13.88;;;7.40;;
64633;SDS011;51043;52.406;9.690;2023-09-08T05:21:56;13.90;;;7.45;;
64633;SDS011;51043;52.406;9.690;2023-09-08T05:24:26;12.25;;;7.88;;
64633;SDS011;51043;52.406;9.690;2023-09-08T05:26:56;20.48;;;7.97;;
64633;SDS011;51043;52.406;9.690;2023-09-08T05:29:25;10.50;;;6.80;;
64633;SDS011;51043;52.406;9.690;2023-09-08T05:31:54;8.90;;;7.28;;
64633;SDS011;51043;52.406;9.690;2023-09-08T05:34:22;12.65;;;7.30;;
64633;SDS011;51043;52.406;9.690;2023-09-08T05:36:51;9.35;;;7.10;;
64633;SDS011;51043;52.406;9.690;2023-09-08T05:39:21;10.63;;;7.10;;
64633;SDS011;51043;52.406;9.690;2023-09-08T05:41:51;10.85;;;7.30;;
64633;SDS011;51043;52.406;9.690;2023-09-08T05:44:19;13.80;;;7.20;;
64633;SDS011;51043;52.406;9.690;2023-09-08T05:46:48;12.18;;;7.60;;
64633;SDS011;51043;52.406;9.690;2023-09-08T05:49:17;17.17;;;7.55;;
64633;SDS011;51043;52.406;9.690;2023-09-08T05:51:45;18.98;;;7.85;;
64633;SDS011;51043;52.406;9.690;2023-09-08T05:54:13;17.58;;;7.72;;
64633;SDS011;51043;52.406;9.690;2023-09-08T05:56:42;12.45;;;7.47;;
64633;SDS011;51043;52.406;9.690;2023-09-08T05:59:12;15.02;;;7.40;;
64633;SDS011;51043;52.406;9.690;2023-09-08T06:01:41;11.70;;;6.93;;
64633;SDS011;51043;52.406;9.690;2023-09-08T06:04:12;15.35;;;6.70;;
64633;SDS011;51043;52.406;9.690;2023-09-08T06:06:40;11.05;;;7.03;;
64633;SDS011;51043;52.406;9.690;2023-09-08T06:09:08;10.77;;;6.60;;
64633;SDS011;51043;52.406;9.690;2023-09-08T06:11:38;15.63;;;6.80;;
64633;SDS011;51043;52.406;9.690;2023-09-08T06:14:07;12.65;;;6.90;;
64633;SDS011;51043;52.406;9.690;2023-09-08T06:16:40;19.33;;;6.50;;
64633;SDS011;51043;52.406;9.690;2023-09-08T06:19:08;9.90;;;6.07;;
64633;SDS011;51043;52.406;9.690;2023-09-08T06:21:36;14.38;;;6.47;;
64633;SDS011;51043;52.406;9.690;2023-09-08T06:24:05;13.18;;;6.18;;
64633;SDS011;51043;52.406;9.690;2023-09-08T06:26:36;13.52;;;5.90;;
64633;SDS011;51043;52.406;9.690;2023-09-08T06:29:06;12.70;;;5.05;;
64633;SDS011;51043;52.406;9.690;2023-09-08T06:31:35;10.80;;;5.85;;
64633;SDS011;51043;52.406;9.690;2023-09-08T06:34:04;15.85;;;5.43;;
64633;SDS011;51043;52.406;9.690;2023-09-08T06:36:33;11.45;;;5.20;;
64633;SDS011;51043;52.406;9.690;2023-09-08T06:39:01;10.88;;;5.10;;
64633;SDS011;51043;52.406;9.690;2023-09-08T06:41:32;17.27;;;5.30;;
64633;SDS011;51043;52.406;9.690;2023-09-08T06:44:02;10.43;;;4.82;;
64633;SDS011;51043;52.406;9.690;2023-09-08T06:46:33;5.75;;;4.60;;
64633;SDS011;51043;52.406;9.690;2023-09-08T06:49:01;12.73;;;5.18;;
64633;SDS011;51043;52.406;9.690;2023-09-08T06:51:32;10.95;;;5.30;;
64633;SDS011;51043;52.406;9.690;2023-09-08T06:54:00;10.00;;;4.85;;
64633;SDS011;51043;52.406;9.690;2023-09-08T06:56:35;13.10;;;5.20;;
64633;SDS011;51043;52.406;9.690;2023-09-08T06:59:05;12.48;;;5.03;;
64633;SDS011;51043;52.406;9.690;2023-09-08T07:01:34;14.52;;;4.93;;
64633;SDS011;51043;52.406;9.690;2023-09-08T07:04:03;11.32;;;4.60;;
64633;SDS011;51043;52.406;9.690;2023-09-08T07:06:36;12.38;;;4.70;;
64633;SDS011;51043;52.406;9.690;2023-09-08T07:09:08;11.00;;;4.43;;
64633;SDS011;51043;52.406;9.690;2023-09-08T07:11:36;11.45;;;4.38;;
64633;SDS011;51043;52.406;9.690;2023-09-08T07:14:04;7.80;;;4.00;;
64633;SDS011;51043;52.406;9.690;2023-09-08T07:16:33;7.55;;;3.58;;
64633;SDS011;51043;52.406;9.690;2023-09-08T07:19:01;8.30;;;4.35;;
64633;SDS011;51043;52.406;9.690;2023-09-08T07:21:31;10.38;;;4.10;;
64633;SDS011;51043;52.406;9.690;2023-09-08T07:24:02;13.52;;;4.00;;
64633;SDS011;51043;52.406;9.690;2023-09-08T07:26:32;5.20;;;3.65;;
64633;SDS011;51043;52.406;9.690;2023-09-08T07:29:01;6.18;;;4.03;;
64633;SDS011;51043;52.406;9.690;2023-09-08T07:31:32;8.90;;;3.70;;
64633;SDS011;51043;52.406;9.690;2023-09-08T07:34:02;12.48;;;4.35;;
64633;SDS011;51043;52.406;9.690;2023-09-08T07:36:30;10.90;;;3.58;;
64633;SDS011;51043;52.406;9.690;2023-09-08T07:38:58;11.80;;;3.80;;
64633;SDS011;51043;52.406;9.690;2023-09-08T07:41:28;7.80;;;3.85;;
64633;SDS011;51043;52.406;9.690;2023-09-08T07:43:56;8.82;;;3.83;;
64633;SDS011;51043;52.406;9.690;2023-09-08T07:46:25;8.70;;;3.70;;
64633;SDS011;51043;52.406;9.690;2023-09-08T07:48:53;3.72;;;3.35;;
64633;SDS011;51043;52.406;9.690;2023-09-08T07:51:21;7.68;;;3.63;;
64633;SDS011;51043;52.406;9.690;2023-09-08T07:53:49;6.07;;;3.30;;
64633;SDS011;51043;52.406;9.690;2023-09-08T07:56:17;6.00;;;3.45;;
64633;SDS011;51043;52.406;9.690;2023-09-08T07:58:47;5.55;;;3.40;;
64633;SDS011;51043;52.406;9.690;2023-09-08T08:01:15;14.82;;;3.88;;
64633;SDS011;51043;52.406;9.690;2023-09-08T08:03:43;8.80;;;3.15;;
64633;SDS011;51043;52.406;9.690;2023-09-08T08:06:12;6.28;;;3.38;;
64633;SDS011;51043;52.406;9.690;2023-09-08T08:08:40;5.63;;;3.67;;
64633;SDS011;51043;52.406;9.690;2023-09-08T08:11:12;13.38;;;3.95;;
64633;SDS011;51043;52.406;9.690;2023-09-08T08:13:41;8.02;;;3.67;;
64633;SDS011;51043;52.406;9.690;2023-09-08T08:16:11;9.23;;;3.40;;
64633;SDS011;51043;52.406;9.690;2023-09-08T08:18:39;11.10;;;3.67;;
64633;SDS011;51043;52.406;9.690;2023-09-08T08:21:07;6.18;;;3.67;;
64633;SDS011;51043;52.406;9.690;2023-09-08T08:23:35;5.65;;;3.33;;
64633;SDS011;51043;52.406;9.690;2023-09-08T08:26:04;7.72;;;3.60;;
64633;SDS011;51043;52.406;9.690;2023-09-08T08:28:34;8.73;;;3.40;;
64633;SDS011;51043;52.406;9.690;2023-09-08T08:31:02;4.95;;;3.22;;
64633;SDS011;51043;52.406;9.690;2023-09-08T08:33:32;6.85;;;3.33;;
64633;SDS011;51043;52.406;9.690;2023-09-08T08:36:01;11.68;;;3.50;;
64633;SDS011;51043;52.406;9.690;2023-09-08T08:38:30;8.13;;;3.63;;
64633;SDS011;51043;52.406;9.690;2023-09-08T08:41:02;6.57;;;3.10;;
64633;SDS011;51043;52.406;9.690;2023-09-08T08:43:31;8.73;;;3.20;;
64633;SDS011;51043;52.406;9.690;2023-09-08T08:46:01;7.28;;;3.40;;
64633;SDS011;51043;52.406;9.690;2023-09-08T08:48:32;8.30;;;3.38;;
64633;SDS011;51043;52.406;9.690;2023-09-08T08:51:01;7.03;;;3.33;;
64633;SDS011;51043;52.406;9.690;2023-09-08T08:53:31;7.90;;;3.10;;
64633;SDS011;51043;52.406;9.690;2023-09-08T08:56:00;11.18;;;3.20;;
64633;SDS011;51043;52.406;9.690;2023-09-08T08:58:29;4.85;;;3.10;;
64633;SDS011;51043;52.406;9.690;2023-09-08T09:00:58;5.75;;;3.17;;
64633;SDS011;51043;52.406;9.690;2023-09-08T09:03:27;4.68;;;2.88;;
64633;SDS011;51043;52.406;9.690;2023-09-08T09:05:59;5.90;;;3.00;;
64633;SDS011;51043;52.406;9.690;2023-09-08T09:08:27;5.28;;;3.10;;
64633;SDS011;51043;52.406;9.690;2023-09-08T09:10:56;7.00;;;3.25;;
64633;SDS011;51043;52.406;9.690;2023-09-08T09:13:24;6.38;;;2.90;;
64633;SDS011;51043;52.406;9.690;2023-09-08T09:15:53;6.43;;;2.92;;
64633;SDS011;51043;52.406;9.690;2023-09-08T09:18:27;4.45;;;2.88;;
64633;SDS011;51043;52.406;9.690;2023-09-08T09:20:59;5.57;;;3.00;;
64633;SDS011;51043;52.406;9.690;2023-09-08T09:23:30;8.57;;;3.15;;
64633;SDS011;51043;52.406;9.690;2023-09-08T09:26:00;5.10;;;3.10;;
64633;SDS011;51043;52.406;9.690;2023-09-08T09:28:30;7.82;;;3.30;;
64633;SDS011;51043;52.406;9.690;2023-09-08T09:30:58;8.38;;;3.10;;
64633;SDS011;51043;52.406;9.690;2023-09-08T09:33:27;5.78;;;2.97;;
64633;SDS011;51043;52.406;9.690;2023-09-08T09:35:56;7.55;;;3.05;;
64633;SDS011;51043;52.406;9.690;2023-09-08T09:38:27;4.65;;;2.97;;
64633;SDS011;51043;52.406;9.690;2023-09-08T09:40:56;7.95;;;2.90;;
64633;SDS011;51043;52.406;9.690;2023-09-08T09:43:24;5.18;;;3.10;;
64633;SDS011;51043;52.406;9.690;2023-09-08T09:45:55;4.68;;;2.97;;
64633;SDS011;51043;52.406;9.690;2023-09-08T09:48:24;5.72;;;3.00;;
64633;SDS011;51043;52.406;9.690;2023-09-08T09:50:52;9.45;;;3.40;;
64633;SDS011;51043;52.406;9.690;2023-09-08T09:53:21;4.68;;;3.00;;
64633;SDS011;51043;52.406;9.690;2023-09-08T09:55:52;11.25;;;3.65;;
64633;SDS011;51043;52.406;9.690;2023-09-08T09:58:21;6.88;;;3.10;;
64633;SDS011;51043;52.406;9.690;2023-09-08T10:00:51;8.10;;;3.03;;
64633;SDS011;51043;52.406;9.690;2023-09-08T10:03:20;8.15;;;3.38;;
64633;SDS011;51043;52.406;9.690;2023-09-08T10:05:51;4.32;;;3.33;;
64633;SDS011;51043;52.406;9.690;2023-09-08T10:08:19;6.97;;;3.72;;
64633;SDS011;51043;52.406;9.690;2023-09-08T10:10:48;6.38;;;3.15;;
64633;SDS011;51043;52.406;9.690;2023-09-08T10:13:27;5.38;;;3.22;;
64633;SDS011;51043;52.406;9.690;2023-09-08T10:15:58;4.53;;;3.25;;
64633;SDS011;51043;52.406;9.690;2023-09-08T10:18:29;5.20;;;2.85;;
64633;SDS011;51043;52.406;9.690;2023-09-08T10:21:03;9.68;;;3.17;;
64633;SDS011;51043;52.406;9.690;2023-09-08T10:23:34;8.18;;;3.25;;
64633;SDS011;51043;52.406;9.690;2023-09-08T10:26:05;6.88;;;2.97;;
64633;SDS011;51043;52.406;9.690;2023-09-08T10:28:38;8.90;;;3.30;;
64633;SDS011;51043;52.406;9.690;2023-09-08T10:31:06;5.70;;;3.17;;
64633;SDS011;51043;52.406;9.690;2023-09-08T10:33:38;8.50;;;3.38;;
64633;SDS011;51043;52.406;9.690;2023-09-08T10:36:07;9.88;;;3.50;;
64633;SDS011;51043;52.406;9.690;2023-09-08T10:38:37;9.32;;;3.00;;
64633;SDS011;51043;52.406;9.690;2023-09-08T10:41:26;9.85;;;3.03;;
64633;SDS011;51043;52.406;9.690;2023-09-08T10:44:02;4.57;;;2.95;;
64633;SDS011;51043;52.406;9.690;2023-09-08T10:46:35;7.35;;;2.90;;
64633;SDS011;51043;52.406;9.690;2023-09-08T10:49:05;7.68;;;3.10;;
64633;SDS011;51043;52.406;9.690;2023-09-08T10:51:34;10.25;;;2.90;;
64633;SDS011;51043;52.406;9.690;2023-09-08T10:54:04;7.90;;;3.17;;
64633;SDS011;51043;52.406;9.690;2023-09-08T10:59:23;8.80;;;3.33;;
64633;SDS011;51043;52.406;9.690;2023-09-08T11:01:55;15.57;;;3.60;;
64633;SDS011;51043;52.406;9.690;2023-09-08T11:04:24;12.63;;;3.25;;
64633;SDS011;51043;52.406;9.690;2023-09-08T11:06:55;6.32;;;2.60;;
64633;SDS011;51043;52.406;9.690;2023-09-08T11:09:24;10.55;;;2.90;;
64633;SDS011;51043;52.406;9.690;2023-09-08T11:11:53;9.85;;;3.40;;
64633;SDS011;51043;52.406;9.690;2023-09-08T11:14:26;16.23;;;3.38;;
64633;SDS011;51043;52.406;9.690;2023-09-08T11:16:55;7.53;;;2.83;;
64633;SDS011;51043;52.406;9.690;2023-09-08T11:22:11;10.57;;;3.35;;
64633;SDS011;51043;52.406;9.690;2023-09-08T11:24:41;5.35;;;2.75;;
64633;SDS011;51043;52.406;9.690;2023-09-08T11:27:09;6.40;;;2.67;;
64633;SDS011;51043;52.406;9.690;2023-09-08T11:29:40;7.13;;;2.83;;
64633;SDS011;51043;52.406;9.690;2023-09-08T11:32:08;5.68;;;2.53;;
64633;SDS011;51043;52.406;9.690;2023-09-08T11:34:37;5.55;;;2.92;;
64633;SDS011;51043;52.406;9.690;2023-09-08T11:37:10;6.03;;;2.67;;
64633;SDS011;51043;52.406;9.690;2023-09-08T11:39:39;11.73;;;2.88;;
64633;SDS011;51043;52.406;9.690;2023-09-08T11:42:10;7.85;;;2.70;;
64633;SDS011;51043;52.406;9.690;2023-09-08T11:44:42;4.70;;;2.42;;
64633;SDS011;51043;52.406;9.690;2023-09-08T11:47:10;5.82;;;2.50;;
64633;SDS011;51043;52.406;9.690;2023-09-08T11:49:40;6.13;;;2.78;;
64633;SDS011;51043;52.406;9.690;2023-09-08T11:52:12;12.07;;;2.53;;
64633;SDS011;51043;52.406;9.690;2023-09-08T11:54:40;4.22;;;2.30;;
64633;SDS011;51043;52.406;9.690;2023-09-08T11:57:17;3.40;;;2.15;;
64633;SDS011;51043;52.406;9.690;2023-09-08T11:59:48;5.18;;;2.42;;
64633;SDS011;51043;52.406;9.690;2023-09-08T12:02:19;5.85;;;2.33;;
64633;SDS011;51043;52.406;9.690;2023-09-08T12:04:47;7.90;;;2.60;;
64633;SDS011;51043;52.406;9.690;2023-09-08T12:07:16;10.50;;;2.20;;
64633;SDS011;51043;52.406;9.690;2023-09-08T12:09:46;4.32;;;2.28;;
64633;SDS011;51043;52.406;9.690;2023-09-08T12:12:15;4.32;;;2.33;;
64633;SDS011;51043;52.406;9.690;2023-09-08T12:14:44;2.85;;;1.83;;
64633;SDS011;51043;52.406;9.690;2023-09-08T12:17:15;7.72;;;1.60;;
64633;SDS011;51043;52.406;9.690;2023-09-08T12:19:44;5.53;;;2.30;;
64633;SDS011;51043;52.406;9.690;2023-09-08T12:22:12;4.38;;;2.33;;
64633;SDS011;51043;52.406;9.690;2023-09-08T12:24:47;4.50;;;2.30;;
64633;SDS011;51043;52.406;9.690;2023-09-08T12:27:17;9.00;;;2.20;;
64633;SDS011;51043;52.406;9.690;2023-09-08T12:29:57;5.28;;;2.20;;
64633;SDS011;51043;52.406;9.690;2023-09-08T12:32:30;1.98;;;1.70;;
64633;SDS011;51043;52.406;9.690;2023-09-08T12:35:02;5.40;;;2.13;;
64633;SDS011;51043;52.406;9.690;2023-09-08T12:37:32;2.10;;;1.90;;
64633;SDS011;51043;52.406;9.690;2023-09-08T12:40:01;4.07;;;2.25;;
64633;SDS011;51043;52.406;9.690;2023-09-08T12:42:30;4.47;;;2.00;;
64633;SDS011;51043;52.406;9.690;2023-09-08T12:44:58;4.35;;;2.22;;
64633;SDS011;51043;52.406;9.690;2023-09-08T12:47:31;2.33;;;2.10;;
64633;SDS011;51043;52.406;9.690;2023-09-08T12:49:59;5.47;;;2.20;;
64633;SDS011;51043;52.406;9.690;2023-09-08T12:52:27;3.92;;;2.22;;
64633;SDS011;51043;52.406;9.690;2023-09-08T12:54:58;7.53;;;2.00;;
64633;SDS011;51043;52.406;9.690;2023-09-08T12:57:26;2.50;;;2.08;;
64633;SDS011;51043;52.406;9.690;2023-09-08T12:59:58;2.33;;;2.13;;
64633;SDS011;51043;52.406;9.690;2023-09-08T13:02:27;6.35;;;1.95;;
64633;SDS011;51043;52.406;9.690;2023-09-08T13:04:57;3.85;;;2.03;;
64633;SDS011;51043;52.406;9.690;2023-09-08T13:07:25;2.20;;;2.00;;
64633;SDS011;51043;52.406;9.690;2023-09-08T13:09:53;3.05;;;1.98;;
64633;SDS011;51043;52.406;9.690;2023-09-08T13:12:22;3.92;;;2.03;;
64633;SDS011;51043;52.406;9.690;2023-09-08T13:14:50;2.63;;;1.80;;
64633;SDS011;51043;52.406;9.690;2023-09-08T13:17:18;4.13;;;2.00;;
64633;SDS011;51043;52.406;9.690;2023-09-08T13:19:47;2.15;;;1.95;;
64633;SDS011;51043;52.406;9.690;2023-09-08T13:22:17;2.45;;;2.15;;
64633;SDS011;51043;52.406;9.690;2023-09-08T13:24:46;2.70;;;1.98;;
64633;SDS011;51043;52.406;9.690;2023-09-08T13:27:15;2.60;;;2.03;;
64633;SDS011;51043;52.406;9.690;2023-09-08T13:29:45;2.33;;;1.73;;
64633;SDS011;51043;52.406;9.690;2023-09-08T13:32:15;4.10;;;1.67;;
64633;SDS011;51043;52.406;9.690;2023-09-08T13:34:44;4.20;;;2.05;;
64633;SDS011;51043;52.406;9.690;2023-09-08T13:37:16;6.35;;;1.90;;
64633;SDS011;51043;52.406;9.690;2023-09-08T13:39:45;4.22;;;2.00;;
64633;SDS011;51043;52.406;9.690;2023-09-08T13:42:14;3.05;;;1.60;;
64633;SDS011;51043;52.406;9.690;2023-09-08T13:44:43;5.63;;;2.10;;
64633;SDS011;51043;52.406;9.690;2023-09-08T13:47:15;3.13;;;1.70;;
64633;SDS011;51043;52.406;9.690;2023-09-08T13:49:46;5.55;;;1.85;;
64633;SDS011;51043;52.406;9.690;2023-09-08T13:52:18;8.63;;;2.00;;
64633;SDS011;51043;52.406;9.690;2023-09-08T13:54:48;2.38;;;1.77;;
64633;SDS011;51043;52.406;9.690;2023-09-08T13:57:24;4.45;;;1.80;;
64633;SDS011;51043;52.406;9.690;2023-09-08T13:59:54;2.33;;;1.80;;
64633;SDS011;51043;52.406;9.690;2023-09-08T14:02:24;2.45;;;1.50;;
64633;SDS011;51043;52.406;9.690;2023-09-08T14:05:07;4.10;;;1.58;;
64633;SDS011;51043;52.406;9.690;2023-09-08T14:07:38;4.20;;;1.40;;
64633;SDS011;51043;52.406;9.690;2023-09-08T14:10:09;7.25;;;2.30;;
64633;SDS011;51043;52.406;9.690;2023-09-08T14:12:41;5.45;;;1.58;;
64633;SDS011;51043;52.406;9.690;2023-09-08T14:15:09;3.05;;;1.60;;
64633;SDS011;51043;52.406;9.690;2023-09-08T14:17:41;4.85;;;1.60;;
64633;SDS011;51043;52.406;9.690;2023-09-08T14:20:10;6.20;;;1.75;;
64633;SDS011;51043;52.406;9.690;2023-09-08T14:22:40;8.40;;;1.77;;
64633;SDS011;51043;52.406;9.690;2023-09-08T14:25:08;2.78;;;1.98;;
64633;SDS011;51043;52.406;9.690;2023-09-08T14:27:37;3.38;;;1.80;;
64633;SDS011;51043;52.406;9.690;2023-09-08T14:30:05;2.55;;;1.90;;
64633;SDS011;51043;52.406;9.690;2023-09-08T14:32:34;2.75;;;1.63;;
64633;SDS011;51043;52.406;9.690;2023-09-08T14:35:02;5.78;;;1.70;;
64633;SDS011;51043;52.406;9.690;2023-09-08T14:37:31;2.60;;;1.75;;
64633;SDS011;51043;52.406;9.690;2023-09-08T14:40:01;2.38;;;1.77;;
64633;SDS011;51043;52.406;9.690;2023-09-08T14:42:30;5.38;;;1.98;;
64633;SDS011;51043;52.406;9.690;2023-09-08T14:44:58;4.40;;;1.90;;
64633;SDS011;51043;52.406;9.690;2023-09-08T14:47:30;3.03;;;2.00;;
64633;SDS011;51043;52.406;9.690;2023-09-08T14:49:59;4.45;;;1.90;;
64633;SDS011;51043;52.406;9.690;2023-09-08T14:52:27;4.63;;;2.13;;
64633;SDS011;51043;52.406;9.690;2023-09-08T14:54:55;4.38;;;1.90;;
64633;SDS011;51043;52.406;9.690;2023-09-08T14:57:25;3.83;;;1.88;;
64633;SDS011;51043;52.406;9.690;2023-09-08T14:59:53;2.47;;;1.90;;
64633;SDS011;51043;52.406;9.690;2023-09-08T15:02:22;2.10;;;1.90;;
64633;SDS011;51043;52.406;9.690;2023-09-08T15:04:50;5.97;;;2.15;;